Time;durP1;ratioP1;P1;durP2;ratioP2;P2;SDS_P1;SDS_P2;PMS_P1;PMS_P2;Temp;Humidity;BMP_temperature;BMP_pressure;BME280_temperature;BME280_humidity;BME280_pressure;Samples;Min_cycle;Max_cycle;Signal;HPM_P1;HPM_P2
2022/09/01 00:00:31;;;;;;;3.60;2.40;;;;;;;14.10;65.70;99168.44;88534;1274;99279;-72
2022/09/01 00:02:38;;;;;;;6.60;2.70;;;;;;;14.08;66.03;99164.27;88712;1274;25217;-73
2022/09/01 00:04:47;;;;;;;11.00;2.40;;;;;;;14.07;65.87;99160.15;88553;1278;22603;-73
2022/09/01 00:06:59;;;;;;;4.30;2.30;;;;;;;14.07;66.19;99157.98;88546;1276;97987;-74
2022/09/01 00:09:05;;;;;;;9.60;2.50;;;;;;;14.06;65.86;99155.42;88761;1274;23130;-74
2022/09/01 00:11:20;;;;;;;4.50;2.90;;;;;;;14.05;65.88;99156.88;88436;1278;22570;-74
2022/09/01 00:13:32;;;;;;;5.70;2.40;;;;;;;14.04;65.97;99152.35;88370;1279;98822;-72
2022/09/01 00:15:39;;;;;;;4.40;2.40;;;;;;;14.05;66.16;99156.54;88772;1276;22583;-73
2022/09/01 00:17:50;;;;;;;3.70;2.50;;;;;;;14.05;66.11;99150.22;88558;1276;99198;-74
2022/09/01 00:20:00;;;;;;;;;;;;;;;14.04;66.04;99152.04;88820;1276;24392;-73
2022/09/01 00:22:03;;;;;;;11.30;2.50;;;;;;;14.01;66.25;99150.63;89448;1276;22573;-73
2022/09/01 00:24:07;;;;;;;7.20;2.60;;;;;;;14.01;66.08;99149.92;90472;1276;98192;-73
2022/09/01 00:26:18;;;;;;;4.70;2.20;;;;;;;14.00;65.96;99151.89;90416;1276;22926;-74
2022/09/01 00:28:20;;;;;;;6.00;2.30;;;;;;;13.98;66.11;99153.05;90440;1276;22572;-74
2022/09/01 00:30:22;;;;;;;10.10;2.50;;;;;;;13.97;66.20;99149.95;89909;1276;97864;-73
2022/09/01 00:32:34;;;;;;;7.20;2.60;;;;;;;13.96;66.20;99147.90;89701;1276;22591;-74
2022/09/01 00:34:52;;;;;;;10.50;2.50;;;;;;;13.94;66.30;99147.10;89808;1276;22500;-73
2022/09/01 00:36:59;;;;;;;7.80;2.60;;;;;;;13.95;66.31;99151.51;89778;1274;99063;-73
2022/09/01 00:39:04;;;;;;;4.10;2.60;;;;;;;13.94;66.23;99151.55;89770;1276;22576;-72
2022/09/01 00:41:07;;;;;;;3.80;2.70;;;;;;;13.95;66.15;99150.26;89832;1276;22655;-73
2022/09/01 00:43:37;;;;;;;4.20;2.20;;;;;;;13.96;66.55;99152.50;89579;1276;98154;-73
2022/09/01 00:45:40;;;;;;;5.70;2.50;;;;;;;13.94;66.30;99149.93;89881;1276;22620;-74
2022/09/01 00:47:42;;;;;;;3.60;2.40;;;;;;;13.92;66.28;99148.98;89707;1276;98029;-73
2022/09/01 00:49:50;;;;;;;2.50;2.30;;;;;;;13.91;66.22;99148.39;89723;1276;22573;-73
2022/09/01 00:51:57;;;;;;;2.60;2.10;;;;;;;13.89;66.70;99146.03;88953;1276;24256;-73
2022/09/01 00:54:05;;;;;;;4.10;2.10;;;;;;;13.88;66.53;99145.88;88677;1274;99731;-74
2022/09/01 00:56:07;;;;;;;11.70;2.40;;;;;;;13.85;66.50;99140.95;88819;1273;22572;-73
2022/09/01 00:58:09;;;;;;;3.30;2.10;;;;;;;13.84;66.79;99139.29;88637;1276;25450;-73
2022/09/01 01:00:23;;;;;;;3.00;2.40;;;;;;;13.82;66.62;99141.33;88536;1277;99172;-73
2022/09/01 01:02:35;;;;;;;4.60;2.30;;;;;;;13.81;66.57;99144.92;88808;1271;22547;-73
2022/09/01 01:04:37;;;;;;;5.10;2.90;;;;;;;13.79;66.68;99143.77;88730;1277;22593;-75
2022/09/01 01:07:26;;;;;;;2.70;2.40;;;;;;;13.78;66.72;99145.38;88562;1276;99570;-72
2022/09/01 01:09:37;;;;;;;3.40;2.40;;;;;;;13.77;66.69;99144.95;88725;1275;23496;-73
2022/09/01 01:12:05;;;;;;;5.20;2.30;;;;;;;13.74;66.69;99148.27;88596;1274;99200;-74
2022/09/01 01:14:18;;;;;;;6.40;2.70;;;;;;;13.73;67.00;99151.70;88739;1274;22600;-75
2022/09/01 01:16:25;;;;;;;6.80;2.30;;;;;;;13.73;66.67;99148.90;88535;1276;23046;-73
2022/09/01 01:18:30;;;;;;;2.70;2.10;;;;;;;13.69;66.81;99149.31;88425;1276;99835;-75
2022/09/01 01:23:41;;;;;;;6.30;3.00;;;;;;;13.61;67.02;99148.02;88633;1276;25378;-73
2022/09/01 01:25:56;;;;;;;3.60;2.20;;;;;;;13.56;67.16;99152.51;88364;1279;24345;-73
2022/09/01 01:28:30;;;;;;;9.70;2.70;;;;;;;13.50;67.08;99154.29;88420;1280;22563;-73
2022/09/01 01:30:35;;;;;;;4.00;2.50;;;;;;;13.49;67.42;99153.16;88583;1279;99787;-73
2022/09/01 01:32:56;;;;;;;4.10;2.90;;;;;;;13.46;67.26;99153.47;88115;1281;22573;-74
2022/09/01 01:35:04;;;;;;;9.80;2.50;;;;;;;13.45;67.41;99156.81;88204;1280;22593;-74
2022/09/01 01:37:12;;;;;;;10.90;2.90;;;;;;;13.41;67.45;99156.38;88170;1280;99176;-73
2022/09/01 01:39:30;;;;;;;8.40;2.70;;;;;;;13.37;67.66;99158.18;88307;1279;22771;-75
2022/09/01 01:41:34;;;;;;;4.30;2.70;;;;;;;13.34;67.68;99153.91;88067;1279;99121;-71
2022/09/01 01:43:38;;;;;;;6.20;2.60;;;;;;;13.32;67.59;99151.91;88342;1281;22664;-73
2022/09/01 01:45:46;;;;;;;4.30;2.80;;;;;;;13.31;67.74;99151.63;88353;1279;25166;-73
2022/09/01 01:47:52;;;;;;;6.70;2.70;;;;;;;13.28;67.77;99151.59;88103;1281;99040;-74
2022/09/01 01:49:57;;;;;;;12.20;2.80;;;;;;;13.27;67.83;99147.75;88412;1280;22572;-73
2022/09/01 01:52:03;;;;;;;10.10;2.90;;;;;;;13.26;68.02;99146.06;88031;1281;25389;-77
2022/09/01 01:54:13;;;;;;;11.80;3.10;;;;;;;13.23;67.98;99146.58;88184;1280;99234;-73
2022/09/01 01:56:25;;;;;;;5.60;3.10;;;;;;;13.21;68.09;99145.14;88280;1280;23153;-73
2022/09/01 01:58:34;;;;;;;6.70;2.80;;;;;;;13.21;68.16;99146.20;88304;1280;22576;-74
2022/09/01 02:00:50;;;;;;;3.00;2.70;;;;;;;13.19;68.14;99145.42;88230;1280;99520;-75
2022/09/01 02:02:52;;;;;;;6.30;3.10;;;;;;;13.18;68.17;99149.33;88138;1277;22708;-73
2022/09/01 02:05:07;;;;;;;6.70;2.50;;;;;;;13.16;68.00;99148.23;88479;1276;22556;-73
2022/09/01 02:07:13;;;;;;;8.00;2.90;;;;;;;13.13;68.15;99149.27;88370;1277;98072;-74
2022/09/01 02:09:22;;;;;;;4.90;2.70;;;;;;;13.11;68.20;99146.88;88354;1278;22577;-73
2022/09/01 02:11:36;;;;;;;3.30;2.60;;;;;;;13.11;68.33;99145.84;88567;1275;22575;-74
2022/09/01 02:13:38;;;;;;;7.80;2.80;;;;;;;13.10;68.18;99148.53;88668;1279;22507;-73
2022/09/01 02:15:45;;;;;;;11.00;3.30;;;;;;;13.11;68.08;99152.56;88354;1279;22586;-74
2022/09/01 02:17:52;;;;;;;5.20;2.70;;;;;;;13.09;68.26;99151.57;88440;1276;99683;-73
2022/09/01 02:20:02;;;;;;;5.90;2.60;;;;;;;13.08;68.51;99152.17;88450;1276;22576;-74
2022/09/01 02:22:04;;;;;;;7.70;2.50;;;;;;;13.08;68.22;99157.48;88471;1276;23998;-72
2022/09/01 02:24:11;;;;;;;7.40;2.60;;;;;;;13.06;68.35;99152.27;88395;1276;99028;-73
2022/09/01 02:26:22;;;;;;;4.60;2.60;;;;;;;13.05;68.48;99156.58;88454;1277;25578;-75
2022/09/01 02:28:27;;;;;;;7.90;3.00;;;;;;;13.04;68.59;99151.71;88538;1276;23485;-73
2022/09/01 02:30:41;;;;;;;5.40;2.80;;;;;;;13.00;68.45;99152.81;88518;1276;99019;-73
2022/09/01 02:32:55;;;;;;;4.30;2.80;;;;;;;13.00;68.74;99151.56;88500;1277;24228;-73
2022/09/01 02:35:00;;;;;;;4.90;2.60;;;;;;;12.98;68.61;99150.96;88379;1277;24298;-74
2022/09/01 02:37:24;;;;;;;8.60;2.80;;;;;;;12.98;68.56;99150.27;88492;1276;99042;-74
2022/09/01 02:39:32;;;;;;;4.10;2.70;;;;;;;13.00;68.75;99148.24;87847;1284;22598;-73
2022/09/01 02:41:40;;;;;;;8.40;3.00;;;;;;;13.01;68.76;99153.63;88114;1281;98302;-73
2022/09/01 02:43:45;;;;;;;8.00;2.90;;;;;;;13.02;68.65;99153.92;88041;1284;22650;-73
2022/09/01 02:45:59;;;;;;;3.30;2.50;;;;;;;13.02;68.61;99155.67;88151;1281;24295;-74
2022/09/01 02:48:08;;;;;;;5.60;2.70;;;;;;;13.01;68.58;99154.67;87967;1281;99058;-73
2022/09/01 02:50:15;;;;;;;7.10;2.70;;;;;;;13.02;68.63;99154.64;88088;1282;23770;-74
2022/09/01 02:52:36;;;;;;;13.90;2.90;;;;;;;12.98;68.73;99152.95;87713;1285;24170;-74
2022/09/01 02:54:38;;;;;;;6.10;2.90;;;;;;;12.97;68.64;99152.61;87922;1281;99230;-74
2022/09/01 02:56:48;;;;;;;12.00;3.10;;;;;;;12.95;68.75;99151.15;88020;1285;24223;-74
2022/09/01 02:58:51;;;;;;;3.50;3.10;;;;;;;12.94;68.90;99145.72;88030;1282;22592;-73
2022/09/01 03:00:56;;;;;;;9.70;3.00;;;;;;;12.93;68.76;99146.84;87958;1282;99152;-74
2022/09/01 03:03:02;;;;;;;3.90;2.30;;;;;;;12.92;68.85;99144.42;88096;1281;22592;-74
2022/09/01 03:05:15;;;;;;;2.60;2.30;;;;;;;12.92;68.92;99139.64;88106;1281;22747;-73
2022/09/01 03:07:22;;;;;;;5.20;3.10;;;;;;;12.92;69.16;99141.77;88139;1282;99031;-74
2022/09/01 03:09:24;;;;;;;4.10;2.90;;;;;;;12.91;69.03;99136.03;87993;1285;22611;-73
2022/09/01 03:11:30;;;;;;;6.90;3.10;;;;;;;12.89;69.34;99132.09;87965;1284;23098;-74
2022/09/01 03:13:33;;;;;;;5.70;2.60;;;;;;;12.87;69.17;99134.67;88256;1282;25899;-74
2022/09/01 03:15:48;;;;;;;3.40;3.10;;;;;;;12.84;69.32;99132.18;88062;1282;22595;-74
2022/09/01 03:17:51;;;;;;;2.90;2.60;;;;;;;12.81;69.44;99133.72;88412;1277;99188;-73
2022/09/01 03:19:53;;;;;;;11.30;3.10;;;;;;;12.79;69.51;99136.64;88523;1277;23516;-73
2022/09/01 03:22:00;;;;;;;16.60;2.90;;;;;;;12.77;69.37;99138.34;88507;1277;22573;-74
2022/09/01 03:24:03;;;;;;;8.70;3.20;;;;;;;12.75;69.48;99138.61;88652;1274;99436;-74
2022/09/01 03:26:08;;;;;;;4.70;3.00;;;;;;;12.74;69.59;99140.80;88453;1278;22605;-74
2022/09/01 03:28:14;;;;;;;6.80;3.40;;;;;;;12.74;69.55;99143.65;88448;1276;22765;-73
2022/09/01 03:30:19;;;;;;;3.40;3.00;;;;;;;12.66;69.58;99131.02;88593;1274;98933;-75
2022/09/01 03:32:22;;;;;;;5.80;3.10;;;;;;;12.71;69.70;99144.67;88491;1278;22581;-74
2022/09/01 03:34:25;;;;;;;5.40;2.80;;;;;;;12.69;69.64;99146.53;88527;1277;22556;-73
2022/09/01 03:36:29;;;;;;;9.30;2.80;;;;;;;12.67;69.78;99148.08;88387;1277;99286;-73
2022/09/01 03:38:32;;;;;;;3.10;2.60;;;;;;;12.65;69.69;99152.79;88359;1276;22660;-74
2022/09/01 03:40:39;;;;;;;6.20;2.80;;;;;;;12.63;69.93;99153.94;88332;1274;22666;-74
2022/09/01 03:42:46;;;;;;;7.00;3.00;;;;;;;12.60;69.75;99153.00;88269;1275;97973;-73
2022/09/01 03:45:06;;;;;;;15.60;2.60;;;;;;;12.58;70.05;99154.03;88266;1281;23700;-73
2022/09/01 03:47:14;;;;;;;3.40;2.60;;;;;;;12.56;69.96;99151.45;88406;1275;22564;-73
2022/09/01 03:49:27;;;;;;;3.30;2.30;;;;;;;12.55;70.04;99149.74;88286;1274;99218;-74
2022/09/01 03:51:34;;;;;;;5.40;3.20;;;;;;;12.52;70.06;99148.68;88729;1274;25336;-74
2022/09/01 03:53:39;;;;;;;4.40;2.70;;;;;;;12.52;70.16;99157.17;88328;1277;99230;-73
2022/09/01 03:55:44;;;;;;;10.00;3.10;;;;;;;12.49;70.14;99157.17;88351;1278;22564;-74
2022/09/01 03:57:54;;;;;;;12.00;2.90;;;;;;;12.45;70.23;99151.70;88436;1277;23517;-73
2022/09/01 03:59:59;;;;;;;14.60;3.00;;;;;;;12.46;70.26;99156.92;88402;1274;99213;-73
2022/09/01 04:02:11;;;;;;;19.70;3.00;;;;;;;12.43;70.16;99155.88;88354;1276;24299;-74
2022/09/01 04:04:17;;;;;;;13.60;2.90;;;;;;;12.40;70.26;99151.44;88355;1274;23544;-74
2022/09/01 04:06:23;;;;;;;24.00;3.00;;;;;;;12.38;70.29;99154.52;88200;1276;99160;-74
2022/09/01 04:08:28;;;;;;;15.00;3.20;;;;;;;12.35;70.38;99157.36;88335;1275;22593;-72
2022/09/01 04:10:50;;;;;;;7.40;3.00;;;;;;;12.33;70.39;99157.78;88350;1274;24368;-73
2022/09/01 04:12:55;;;;;;;14.30;3.10;;;;;;;12.29;70.45;99161.70;88277;1274;99189;-73
2022/09/01 04:15:08;;;;;;;14.10;3.20;;;;;;;12.27;70.45;99164.10;88427;1274;22714;-73
2022/09/01 04:19:48;;;;;;;8.60;3.20;;;;;;;12.24;70.66;99167.44;88397;1274;25714;-73
2022/09/01 04:21:59;;;;;;;9.60;3.00;;;;;;;12.22;70.72;99162.61;88346;1275;22638;-74
2022/09/01 04:24:04;;;;;;;21.30;3.40;;;;;;;12.20;70.86;99162.20;88350;1274;99099;-73
2022/09/01 04:26:13;;;;;;;15.60;2.80;;;;;;;12.21;70.90;99164.42;88405;1274;22560;-76
2022/09/01 04:28:26;;;;;;;12.00;2.90;;;;;;;12.21;70.92;99161.93;88337;1275;22701;-74
2022/09/01 04:30:41;;;;;;;9.00;2.90;;;;;;;12.19;70.93;99162.77;88235;1277;99286;-73
2022/09/01 04:32:45;;;;;;;10.60;4.00;;;;;;;12.18;70.96;99161.38;88324;1278;25418;-73
2022/09/01 04:34:47;;;;;;;7.50;3.40;;;;;;;12.19;70.92;99156.95;88443;1274;24264;-73
2022/09/01 04:36:53;;;;;;;8.00;3.00;;;;;;;12.19;71.08;99162.94;88368;1275;99208;-74
2022/09/01 04:39:00;;;;;;;10.70;3.00;;;;;;;12.18;71.17;99165.06;88385;1278;23480;-74
2022/09/01 04:41:05;;;;;;;8.90;3.00;;;;;;;12.19;71.01;99164.68;88317;1274;25609;-73
2022/09/01 04:43:17;;;;;;;10.10;3.10;;;;;;;12.14;71.05;99157.91;88225;1277;99387;-73
2022/09/01 04:45:26;;;;;;;16.80;3.20;;;;;;;12.21;71.21;99168.09;88351;1275;22676;-74
2022/09/01 04:47:32;;;;;;;10.30;3.00;;;;;;;12.22;71.19;99169.85;88337;1276;22574;-72
2022/09/01 04:49:37;;;;;;;12.60;3.10;;;;;;;12.24;71.13;99175.69;88352;1275;22564;-74
2022/09/01 04:51:43;;;;;;;8.40;3.30;;;;;;;12.24;71.25;99175.69;88447;1274;23005;-74
2022/09/01 04:53:47;;;;;;;15.60;3.90;;;;;;;12.25;71.27;99178.98;88274;1275;99214;-73
2022/09/01 04:55:52;;;;;;;8.20;3.30;;;;;;;12.27;71.19;99181.55;88362;1277;22583;-74
2022/09/01 04:57:57;;;;;;;12.00;3.30;;;;;;;12.29;71.40;99175.30;88302;1275;25554;-73
2022/09/01 05:00:02;;;;;;;21.30;3.20;;;;;;;12.30;71.38;99171.35;88248;1275;99403;-72
2022/09/01 05:02:08;;;;;;;17.10;4.10;;;;;;;12.30;71.17;99171.88;88369;1274;24785;-74
2022/09/01 05:04:13;;;;;;;28.40;4.20;;;;;;;12.29;71.24;99171.04;88465;1275;25757;-74
2022/09/01 05:06:16;;;;;;;10.30;3.60;;;;;;;12.30;71.27;99169.39;88441;1277;99095;-74
2022/09/01 05:08:22;;;;;;;19.00;3.50;;;;;;;12.32;71.32;99170.37;88264;1276;22636;-72
2022/09/01 05:10:28;;;;;;;14.10;3.60;;;;;;;12.35;71.28;99172.51;88229;1277;22590;-72
2022/09/01 05:12:52;;;;;;;15.10;3.40;;;;;;;12.37;71.22;99174.14;88140;1278;99592;-72
2022/09/01 05:15:08;;;;;;;7.80;3.10;;;;;;;12.40;71.24;99170.29;88410;1277;22652;-72
2022/09/01 05:17:11;;;;;;;7.60;2.80;;;;;;;12.41;71.22;99169.33;88864;1277;22624;-71
2022/09/01 05:19:27;;;;;;;11.00;3.50;;;;;;;12.45;71.26;99169.00;88182;1277;99039;-72
2022/09/01 05:21:38;;;;;;;6.10;3.10;;;;;;;12.47;71.37;99167.30;88369;1278;24237;-72
2022/09/01 05:23:41;;;;;;;7.40;3.30;;;;;;;12.51;71.37;99168.66;88217;1278;99180;-72
2022/09/01 05:25:45;;;;;;;19.90;3.40;;;;;;;12.46;71.30;99152.17;88356;1274;23967;-72
2022/09/01 05:27:51;;;;;;;14.00;3.00;;;;;;;12.58;71.28;99167.08;88373;1277;22720;-72
2022/09/01 05:29:53;;;;;;;16.10;3.60;;;;;;;12.64;71.28;99162.54;88232;1277;99794;-72
2022/09/01 05:32:07;;;;;;;7.10;2.60;;;;;;;12.70;71.44;99162.92;88341;1276;25868;-71
2022/09/01 05:34:11;;;;;;;8.50;3.20;;;;;;;12.76;71.25;99162.22;88335;1275;22493;-72
2022/09/01 05:36:16;;;;;;;26.80;3.30;;;;;;;12.83;71.15;99160.23;88295;1274;99212;-72
2022/09/01 05:38:19;;;;;;;8.80;2.50;;;;;;;12.90;71.24;99164.09;88546;1274;25267;-71
2022/09/01 05:40:22;;;;;;;15.30;2.90;;;;;;;12.97;71.06;99162.48;88461;1275;22570;-73
2022/09/01 05:42:27;;;;;;;6.50;2.20;;;;;;;13.03;71.06;99164.80;88294;1274;99294;-72
2022/09/01 05:44:31;;;;;;;6.80;3.00;;;;;;;13.09;71.03;99165.35;88388;1275;25637;-72
2022/09/01 05:46:36;;;;;;;7.40;2.40;;;;;;;13.15;70.83;99164.67;88323;1276;22557;-71
2022/09/01 05:48:51;;;;;;;14.80;2.80;;;;;;;13.22;70.89;99169.06;88329;1278;98582;-71
2022/09/01 05:50:56;;;;;;;10.80;2.50;;;;;;;13.29;71.00;99169.20;88378;1274;22594;-71
2022/09/01 05:53:14;;;;;;;10.50;2.60;;;;;;;13.35;70.93;99169.04;88341;1276;22680;-72
2022/09/01 05:55:19;;;;;;;15.90;2.30;;;;;;;13.43;70.81;99168.77;88261;1275;99189;-72
2022/09/01 05:57:21;;;;;;;5.70;2.10;;;;;;;13.52;70.90;99168.82;88564;1274;22573;-72
2022/09/01 05:59:22;;;;;;;8.70;2.70;;;;;;;13.60;70.74;99172.58;88469;1274;26766;-72
2022/09/01 06:01:27;;;;;;;11.20;1.90;;;;;;;13.69;70.74;99170.30;88224;1276;99232;-72
2022/09/01 06:03:39;;;;;;;10.80;2.70;;;;;;;13.77;70.59;99167.90;88382;1274;22634;-72
2022/09/01 06:06:04;;;;;;;10.40;2.60;;;;;;;13.85;70.58;99171.00;88385;1274;99820;-74
2022/09/01 06:08:09;;;;;;;8.70;2.60;;;;;;;13.92;70.27;99171.84;88325;1277;23535;-71
2022/09/01 06:10:13;;;;;;;3.80;2.00;;;;;;;13.99;70.37;99172.27;88408;1277;22579;-71
2022/09/01 06:12:17;;;;;;;12.30;2.30;;;;;;;14.08;70.41;99170.67;88310;1274;99215;-71
2022/09/01 06:14:20;;;;;;;3.80;2.40;;;;;;;14.21;70.46;99171.14;88530;1276;24691;-72
2022/09/01 06:16:23;;;;;;;12.10;2.50;;;;;;;14.31;70.27;99171.59;88505;1274;22613;-71
2022/09/01 06:18:26;;;;;;;3.40;2.00;;;;;;;14.38;70.14;99171.52;88232;1277;99231;-71
2022/09/01 06:20:28;;;;;;;7.80;2.10;;;;;;;14.46;70.17;99168.77;88324;1276;25549;-71
2022/09/01 06:22:31;;;;;;;4.00;2.20;;;;;;;14.58;70.03;99172.61;88279;1276;25638;-72
2022/09/01 06:24:33;;;;;;;20.20;2.60;;;;;;;14.64;69.96;99176.00;88194;1278;99496;-72
2022/09/01 06:26:38;;;;;;;13.30;2.20;;;;;;;14.72;69.82;99181.17;88304;1276;22968;-71
2022/09/01 06:28:42;;;;;;;13.70;2.60;;;;;;;14.78;69.88;99184.85;88483;1274;25328;-72
2022/09/01 06:30:44;;;;;;;10.60;2.20;;;;;;;14.81;69.45;99189.63;88228;1276;99994;-71
2022/09/01 06:32:48;;;;;;;10.40;2.50;;;;;;;14.84;69.63;99182.19;88461;1274;22970;-72
2022/09/01 06:34:50;;;;;;;3.70;1.90;;;;;;;14.92;69.69;99186.32;88445;1277;25274;-71
2022/09/01 06:36:52;;;;;;;6.70;1.90;;;;;;;14.98;69.49;99179.35;88382;1274;99610;-71
2022/09/01 06:38:54;;;;;;;2.80;2.10;;;;;;;15.07;69.47;99178.65;88409;1276;25606;-71
2022/09/01 06:41:03;;;;;;;11.70;1.80;;;;;;;15.17;69.42;99183.16;88409;1276;25479;-72
2022/09/01 06:43:06;;;;;;;9.30;2.10;;;;;;;15.25;69.31;99187.79;88280;1274;99549;-74
2022/09/01 06:45:09;;;;;;;10.50;2.40;;;;;;;15.31;68.95;99191.63;88610;1274;22560;-73
2022/09/01 06:47:14;;;;;;;4.80;2.10;;;;;;;15.34;69.04;99190.59;88491;1274;23013;-73
2022/09/01 06:49:16;;;;;;;16.60;2.70;;;;;;;15.39;69.01;99190.05;88492;1273;98777;-71
2022/09/01 06:51:20;;;;;;;10.00;1.90;;;;;;;15.43;68.89;99191.73;88410;1274;25336;-72
2022/09/01 06:53:23;;;;;;;4.60;1.90;;;;;;;15.44;68.70;99186.14;88407;1275;22570;-70
2022/09/01 06:55:30;;;;;;;12.90;2.40;;;;;;;15.51;68.77;99186.98;88431;1273;99713;-73
2022/09/01 06:57:34;;;;;;;14.30;1.90;;;;;;;15.54;68.64;99192.42;88269;1277;24238;-72
2022/09/01 06:59:36;;;;;;;17.60;2.00;;;;;;;15.58;68.62;99194.52;88547;1274;99235;-71
2022/09/01 07:01:38;;;;;;;11.90;2.30;;;;;;;15.65;68.74;99201.66;88644;1274;22532;-72
2022/09/01 07:03:47;;;;;;;7.70;2.00;;;;;;;15.71;68.54;99202.65;88353;1277;22871;-72
2022/09/01 07:05:50;;;;;;;18.30;3.40;;;;;;;15.78;68.43;99200.48;88584;1274;98096;-72
2022/09/01 07:07:54;;;;;;;10.40;1.80;;;;;;;15.82;68.42;99203.38;88445;1274;22637;-72
2022/09/01 07:09:56;;;;;;;10.30;2.00;;;;;;;15.92;68.44;99205.93;88772;1274;22798;-71
2022/09/01 07:12:02;;;;;;;9.90;1.80;;;;;;;15.95;68.28;99200.04;87943;1273;99171;-72
2022/09/01 07:14:05;;;;;;;7.10;1.80;;;;;;;16.08;68.27;99202.19;88447;1273;25395;-73
2022/09/01 07:16:08;;;;;;;3.20;1.40;;;;;;;16.16;68.10;99205.20;88546;1274;25516;-71
2022/09/01 07:18:13;;;;;;;10.40;1.90;;;;;;;16.23;68.03;99203.70;88429;1273;98973;-72
2022/09/01 07:20:16;;;;;;;8.10;1.90;;;;;;;16.27;67.85;99201.48;88771;1277;22589;-74
2022/09/01 07:22:18;;;;;;;7.50;1.60;;;;;;;16.33;68.10;99205.48;88653;1272;23854;-71
2022/09/01 07:24:21;;;;;;;5.80;1.90;;;;;;;16.39;67.84;99206.29;88454;1272;98929;-72
2022/09/01 07:26:24;;;;;;;2.60;1.70;;;;;;;16.42;67.85;99208.73;88498;1273;24213;-70
2022/09/01 07:28:28;;;;;;;8.60;1.50;;;;;;;16.50;67.87;99209.30;88578;1273;23650;-73
2022/09/01 07:30:40;;;;;;;10.70;1.70;;;;;;;16.54;67.66;99206.02;88595;1273;99164;-71
2022/09/01 07:32:42;;;;;;;6.60;1.70;;;;;;;16.56;67.61;99209.23;88461;1274;22570;-72
2022/09/01 07:34:51;;;;;;;6.40;2.00;;;;;;;16.61;67.54;99209.59;88632;1273;22720;-78
2022/09/01 07:36:57;;;;;;;7.10;1.80;;;;;;;16.63;67.45;99207.00;88969;1273;98266;-78
2022/09/01 07:39:05;;;;;;;6.80;1.40;;;;;;;16.71;67.35;99213.19;88848;1274;22801;-77
2022/09/01 07:41:11;;;;;;;11.60;1.50;;;;;;;16.76;67.07;99212.61;88882;1274;22599;-76
2022/09/01 07:43:21;;;;;;;15.00;1.70;;;;;;;16.78;66.34;99213.78;88713;1274;99524;-77
2022/09/01 07:45:24;;;;;;;10.60;1.60;;;;;;;16.83;66.67;99216.03;88598;1277;22602;-78
2022/09/01 07:47:28;;;;;;;6.50;1.50;;;;;;;16.93;66.41;99212.55;88699;1274;25602;-77
2022/09/01 07:49:30;;;;;;;3.30;1.30;;;;;;;16.94;66.46;99213.39;88780;1273;97828;-75
2022/09/01 07:51:35;;;;;;;3.10;1.30;;;;;;;16.97;66.73;99201.25;88632;1274;25886;-78
2022/09/01 07:53:37;;;;;;;2.00;1.10;;;;;;;17.07;66.53;99203.05;88528;1274;99268;-73
2022/09/01 07:55:42;;;;;;;9.10;2.00;;;;;;;17.04;66.51;99200.60;88755;1272;22559;-74
2022/09/01 07:57:45;;;;;;;7.30;1.70;;;;;;;16.98;66.57;99186.12;88524;1274;25391;-74
2022/09/01 07:59:54;;;;;;;4.50;1.90;;;;;;;17.13;66.29;99196.38;88698;1274;99164;-75
2022/09/01 08:01:56;;;;;;;8.20;2.00;;;;;;;17.18;66.30;99194.63;88643;1273;22636;-74
2022/09/01 08:04:01;;;;;;;4.40;1.80;;;;;;;17.26;66.45;99194.37;88536;1274;22738;-77
2022/09/01 08:06:11;;;;;;;10.00;1.60;;;;;;;17.33;66.19;99198.67;88445;1274;99436;-75
2022/09/01 08:08:13;;;;;;;6.90;1.50;;;;;;;17.44;66.32;99199.83;88605;1274;24861;-74
2022/09/01 08:10:15;;;;;;;7.00;1.40;;;;;;;17.54;65.89;99197.00;88371;1274;22684;-76
2022/09/01 08:12:17;;;;;;;1.80;1.40;;;;;;;17.59;65.69;99198.27;88435;1272;99118;-75
2022/09/01 08:14:19;;;;;;;6.30;1.60;;;;;;;17.59;65.59;99192.70;88417;1274;22722;-75
2022/09/01 08:16:24;;;;;;;7.80;1.80;;;;;;;17.64;65.68;99192.91;88459;1274;23516;-75
2022/09/01 08:18:25;;;;;;;4.10;1.50;;;;;;;17.74;65.58;99188.59;88297;1275;99324;-75
2022/09/01 08:20:29;;;;;;;5.30;1.50;;;;;;;17.88;65.64;99191.13;88461;1273;23200;-74
2022/09/01 08:22:31;;;;;;;6.20;1.60;;;;;;;17.98;65.07;99194.30;88466;1274;23190;-74
2022/09/01 08:24:33;;;;;;;12.70;1.70;;;;;;;18.05;65.24;99193.27;88275;1274;98403;-74
2022/09/01 08:26:35;;;;;;;4.40;1.60;;;;;;;18.13;65.08;99197.27;88421;1273;24217;-75
2022/09/01 08:28:40;;;;;;;16.80;1.70;;;;;;;18.21;64.91;99192.36;88516;1273;22804;-74
2022/09/01 08:30:43;;;;;;;3.60;1.30;;;;;;;18.31;64.59;99193.74;88330;1276;99261;-76
2022/09/01 08:32:45;;;;;;;1.80;1.30;;;;;;;18.42;64.41;99193.98;88541;1274;22719;-74
2022/09/01 08:34:47;;;;;;;11.50;1.30;;;;;;;18.46;63.89;99185.12;88803;1273;22589;-75
2022/09/01 08:36:49;;;;;;;2.00;1.30;;;;;;;18.57;63.80;99192.34;88407;1274;99177;-75
2022/09/01 08:38:51;;;;;;;3.00;1.20;;;;;;;18.60;63.15;99186.77;88571;1274;22777;-77
2022/09/01 08:40:56;;;;;;;13.30;1.60;;;;;;;18.65;63.32;99187.08;88525;1274;22817;-74
2022/09/01 08:43:16;;;;;;;6.20;1.70;;;;;;;18.69;63.19;99189.96;88580;1273;100336;-75
2022/09/01 08:45:37;;;;;;;5.50;1.50;;;;;;;18.68;62.66;99187.02;88689;1274;22893;-76
2022/09/01 08:47:39;;;;;;;5.60;1.80;;;;;;;18.60;62.77;99184.05;88298;1274;99308;-76
2022/09/01 08:49:45;;;;;;;7.40;1.30;;;;;;;18.64;62.79;99188.36;88769;1274;22508;-76
2022/09/01 08:52:05;;;;;;;1.10;1.00;;;;;;;18.69;62.65;99187.21;89449;1274;22650;-74
2022/09/01 08:54:35;;;;;;;6.20;1.00;;;;;;;18.74;62.05;99191.69;89923;1274;97799;-77
2022/09/01 08:56:39;;;;;;;3.00;0.90;;;;;;;18.73;61.88;99191.73;90279;1274;22540;-75
2022/09/01 08:58:40;;;;;;;15.00;1.70;;;;;;;18.75;62.22;99190.34;89593;1273;25338;-75
2022/09/01 09:00:47;;;;;;;18.50;1.90;;;;;;;18.82;61.89;99185.36;88983;1274;99428;-76
2022/09/01 09:03:36;;;;;;;7.60;1.20;;;;;;;18.90;62.13;99188.85;89041;1274;22611;-74
2022/09/01 09:06:21;;;;;;;10.70;1.20;;;;;;;19.08;62.11;99185.13;89014;1273;98597;-74
2022/09/01 09:08:56;;;;;;;5.20;1.10;;;;;;;19.26;61.94;99183.83;88523;1277;22572;-75
2022/09/01 09:11:05;;;;;;;3.60;1.10;;;;;;;19.40;61.69;99184.70;88566;1277;22613;-75
2022/09/01 09:13:31;;;;;;;2.60;1.20;;;;;;;19.49;61.57;99181.45;88725;1277;99432;-75
2022/09/01 09:15:46;;;;;;;6.00;1.00;;;;;;;19.60;61.21;99183.73;88504;1278;25400;-75
2022/09/01 09:17:58;;;;;;;16.90;2.90;;;;;;;19.69;61.25;99180.17;88369;1278;99476;-75
2022/09/01 09:20:01;;;;;;;7.90;6.30;;;;;;;19.79;61.04;99178.27;88576;1278;24407;-76
2022/09/01 09:22:11;;;;;;;6.70;1.30;;;;;;;19.90;61.09;99183.13;88256;1280;25842;-75
2022/09/01 09:24:23;;;;;;;2.40;1.10;;;;;;;20.01;60.39;99183.26;88407;1277;99049;-73
2022/09/01 09:26:34;;;;;;;17.30;1.20;;;;;;;20.11;60.04;99182.27;88473;1277;23099;-76
2022/09/01 09:28:38;;;;;;;20.30;1.30;;;;;;;20.15;59.20;99178.73;88252;1280;22612;-76
2022/09/01 09:30:43;;;;;;;5.50;1.00;;;;;;;20.16;59.16;99179.84;88177;1280;99763;-76
2022/09/01 09:33:09;;;;;;;11.80;1.20;;;;;;;20.21;59.21;99179.92;88251;1280;22792;-77
2022/09/01 09:35:35;;;;;;;7.50;1.10;;;;;;;20.23;58.77;99183.35;87901;1284;22855;-75
2022/09/01 09:37:39;;;;;;;16.70;1.60;;;;;;;20.24;58.64;99182.89;87529;1284;98810;-76
2022/09/01 09:39:41;;;;;;;8.60;1.60;;;;;;;20.26;57.77;99180.95;87694;1285;24149;-75
2022/09/01 09:42:07;;;;;;;6.90;1.30;;;;;;;20.26;58.15;99180.48;87290;1288;98299;-75
2022/09/01 09:44:23;;;;;;;7.00;1.20;;;;;;;20.32;57.40;99181.91;88173;1281;22672;-76
2022/09/01 09:46:37;;;;;;;2.70;1.20;;;;;;;20.31;57.11;99181.82;88817;1279;22669;-76
2022/09/01 09:48:39;;;;;;;3.30;1.10;;;;;;;20.28;57.09;99181.54;88990;1279;98926;-75
2022/09/01 09:50:42;;;;;;;29.40;1.90;;;;;;;20.29;57.09;99183.09;88615;1281;22857;-75
2022/09/01 09:52:46;;;;;;;2.90;1.40;;;;;;;20.38;57.74;99180.48;88629;1281;22590;-75
2022/09/01 09:55:07;;;;;;;1.80;0.90;;;;;;;20.52;57.24;99184.96;88479;1281;99411;-74
2022/09/01 09:57:17;;;;;;;5.50;1.20;;;;;;;20.57;57.14;99181.54;88745;1280;22758;-75
2022/09/01 09:59:30;;;;;;;3.00;1.00;;;;;;;20.64;56.98;99179.67;88584;1281;24275;-76
2022/09/01 10:01:34;;;;;;;8.30;1.20;;;;;;;20.79;56.21;99184.67;88697;1279;98922;-71
2022/09/01 10:03:50;;;;;;;1.60;0.90;;;;;;;20.78;55.92;99176.20;88721;1279;22596;-76
2022/09/01 10:06:12;;;;;;;0.70;0.60;;;;;;;20.90;56.25;99176.91;88515;1280;98073;-77